Terminal Aerodrome Forecast
Issued by NWS

Home | Current Version | Previous Version | Text Only | Print | Product List | Glossary On
Versions: 1 2 3 4 5 6 7 8 9 10 11 12 13 14 15 16 17 18 19 20 21 22 23 24 25 26 27 28 29 30 31 32
014
FTUS41 KGYX 232128 AAA
TAFLEB
TAF AMD
KLEB 232128Z 2321/2418 05010KT P6SM OVC022 WS015/09030KT
     FM240100 03012KT 4SM -SN BR OVC015 WS015/09030KT
     FM240600 36012G20KT 2SM -SNPL BR OVC012
     FM241600 36010KT 2SM -PL BR OVC015=

USA.gov is the U.S. government's official web portal to all federal, state and local government web resources and services.